sensor_id;sensor_type;location;lat;lon;timestamp;P1;P2;P0
69349;PMS5003;64554;43.452;4.934;2023-06-14T00:01:14;5.75;5.75;4.00
69349;PMS5003;64554;43.452;4.934;2023-06-14T00:03:40;6.00;5.40;4.00
69349;PMS5003;64554;43.452;4.934;2023-06-14T00:06:07;5.25;5.25;4.00
69349;PMS5003;64554;43.452;4.934;2023-06-14T00:08:33;6.00;6.00;4.00
69349;PMS5003;64554;43.452;4.934;2023-06-14T00:11:01;3.25;3.25;2.00
69349;PMS5003;64554;43.452;4.934;2023-06-14T00:13:28;5.00;5.00;3.00
69349;PMS5003;64554;43.452;4.934;2023-06-14T00:15:54;7.00;7.00;5.00
69349;PMS5003;64554;43.452;4.934;2023-06-14T00:18:22;5.25;4.25;3.25
69349;PMS5003;64554;43.452;4.934;2023-06-14T00:20:55;5.00;5.00;2.00
69349;PMS5003;64554;43.452;4.934;2023-06-14T00:23:22;5.00;5.00;3.00
69349;PMS5003;64554;43.452;4.934;2023-06-14T00:25:48;3.50;3.50;2.00
69349;PMS5003;64554;43.452;4.934;2023-06-14T00:28:15;4.75;4.75;2.75
69349;PMS5003;64554;43.452;4.934;2023-06-14T00:30:41;5.60;5.60;3.60
69349;PMS5003;64554;43.452;4.934;2023-06-14T00:33:10;5.25;5.25;4.00
69349;PMS5003;64554;43.452;4.934;2023-06-14T00:35:37;5.00;3.75;2.00
69349;PMS5003;64554;43.452;4.934;2023-06-14T00:38:03;5.00;5.00;3.40
69349;PMS5003;64554;43.452;4.934;2023-06-14T00:40:30;5.00;5.00;3.50
69349;PMS5003;64554;43.452;4.934;2023-06-14T00:42:57;6.50;3.50;2.50
69349;PMS5003;64554;43.452;4.934;2023-06-14T00:45:23;6.20;6.20;3.60
69349;PMS5003;64554;43.452;4.934;2023-06-14T00:47:50;8.00;8.00;3.40
69349;PMS5003;64554;43.452;4.934;2023-06-14T00:50:19;3.00;3.00;2.00
69349;PMS5003;64554;43.452;4.934;2023-06-14T00:52:47;6.00;5.00;4.00
69349;PMS5003;64554;43.452;4.934;2023-06-14T00:55:13;5.20;5.20;3.20
69349;PMS5003;64554;43.452;4.934;2023-06-14T00:57:40;6.75;4.75;2.75
69349;PMS5003;64554;43.452;4.934;2023-06-14T01:00:07;6.50;6.50;5.50
69349;PMS5003;64554;43.452;4.934;2023-06-14T01:02:36;6.75;6.75;3.75
69349;PMS5003;64554;43.452;4.934;2023-06-14T01:05:04;6.00;6.00;3.00
69349;PMS5003;64554;43.452;4.934;2023-06-14T01:12:31;7.00;7.00;6.00
69349;PMS5003;64554;43.452;4.934;2023-06-14T01:15:01;7.00;6.00;4.50
69349;PMS5003;64554;43.452;4.934;2023-06-14T01:17:30;6.50;5.50;4.00
69349;PMS5003;64554;43.452;4.934;2023-06-14T01:19:58;3.80;3.80;2.20
69349;PMS5003;64554;43.452;4.934;2023-06-14T01:22:26;5.00;5.00;3.00
69349;PMS5003;64554;43.452;4.934;2023-06-14T01:24:53;5.60;5.60;3.60
69349;PMS5003;64554;43.452;4.934;2023-06-14T01:27:22;4.00;4.00;3.00
69349;PMS5003;64554;43.452;4.934;2023-06-14T01:29:51;6.60;6.40;3.60
69349;PMS5003;64554;43.452;4.934;2023-06-14T01:32:23;6.25;6.25;4.00
69349;PMS5003;64554;43.452;4.934;2023-06-14T01:34:50;6.60;6.40;4.00
69349;PMS5003;64554;43.452;4.934;2023-06-14T01:37:17;6.50;6.50;5.00
69349;PMS5003;64554;43.452;4.934;2023-06-14T01:39:44;7.75;7.75;5.75
69349;PMS5003;64554;43.452;4.934;2023-06-14T01:42:12;6.00;6.00;4.00
69349;PMS5003;64554;43.452;4.934;2023-06-14T01:44:39;5.40;5.40;3.40
69349;PMS5003;64554;43.452;4.934;2023-06-14T01:47:06;6.00;5.20;3.20
69349;PMS5003;64554;43.452;4.934;2023-06-14T01:49:34;4.50;4.50;3.00
69349;PMS5003;64554;43.452;4.934;2023-06-14T01:52:01;7.80;6.00;4.00
69349;PMS5003;64554;43.452;4.934;2023-06-14T01:54:28;7.50;7.50;4.50
69349;PMS5003;64554;43.452;4.934;2023-06-14T01:56:55;6.00;6.00;4.00
69349;PMS5003;64554;43.452;4.934;2023-06-14T01:59:22;7.50;5.50;3.50
69349;PMS5003;64554;43.452;4.934;2023-06-14T02:01:49;5.00;5.00;3.00
69349;PMS5003;64554;43.452;4.934;2023-06-14T02:04:15;5.60;5.60;3.60
69349;PMS5003;64554;43.452;4.934;2023-06-14T02:06:42;5.75;5.75;3.75
69349;PMS5003;64554;43.452;4.934;2023-06-14T02:09:09;5.00;5.00;3.00
69349;PMS5003;64554;43.452;4.934;2023-06-14T02:11:35;5.20;5.20;3.20
69349;PMS5003;64554;43.452;4.934;2023-06-14T02:14:02;5.80;5.80;4.00
69349;PMS5003;64554;43.452;4.934;2023-06-14T02:16:29;7.00;7.00;4.00
69349;PMS5003;64554;43.452;4.934;2023-06-14T02:18:56;8.20;8.20;5.60
69349;PMS5003;64554;43.452;4.934;2023-06-14T02:21:23;5.50;5.50;4.50
69349;PMS5003;64554;43.452;4.934;2023-06-14T02:23:49;5.40;5.40;4.00
69349;PMS5003;64554;43.452;4.934;2023-06-14T02:26:16;5.60;5.60;4.20
69349;PMS5003;64554;43.452;4.934;2023-06-14T02:28:42;7.00;7.00;5.60
69349;PMS5003;64554;43.452;4.934;2023-06-14T02:31:09;6.50;6.50;4.50
69349;PMS5003;64554;43.452;4.934;2023-06-14T02:33:36;6.00;6.00;4.00
69349;PMS5003;64554;43.452;4.934;2023-06-14T02:36:02;4.60;4.60;3.40
69349;PMS5003;64554;43.452;4.934;2023-06-14T02:38:29;5.40;5.40;4.40
69349;PMS5003;64554;43.452;4.934;2023-06-14T02:40:56;6.00;6.00;4.50
69349;PMS5003;64554;43.452;4.934;2023-06-14T02:43:22;6.00;6.00;3.50
69349;PMS5003;64554;43.452;4.934;2023-06-14T02:45:49;5.00;5.00;3.50
69349;PMS5003;64554;43.452;4.934;2023-06-14T02:48:16;6.40;5.40;3.40
69349;PMS5003;64554;43.452;4.934;2023-06-14T02:50:43;5.40;5.40;4.00
69349;PMS5003;64554;43.452;4.934;2023-06-14T02:53:09;6.00;6.00;3.50
69349;PMS5003;64554;43.452;4.934;2023-06-14T02:55:37;4.40;3.40;2.40
69349;PMS5003;64554;43.452;4.934;2023-06-14T02:58:06;12.00;5.00;4.00
69349;PMS5003;64554;43.452;4.934;2023-06-14T03:00:33;5.60;5.60;4.00
69349;PMS5003;64554;43.452;4.934;2023-06-14T03:03:01;4.50;4.50;3.50
69349;PMS5003;64554;43.452;4.934;2023-06-14T03:05:28;5.75;5.75;3.75
69349;PMS5003;64554;43.452;4.934;2023-06-14T03:07:55;10.50;10.50;5.00
69349;PMS5003;64554;43.452;4.934;2023-06-14T03:10:22;6.60;6.60;4.00
69349;PMS5003;64554;43.452;4.934;2023-06-14T03:12:48;5.40;5.40;4.40
69349;PMS5003;64554;43.452;4.934;2023-06-14T03:15:15;10.00;9.00;4.00
69349;PMS5003;64554;43.452;4.934;2023-06-14T03:17:41;6.00;6.00;4.00
69349;PMS5003;64554;43.452;4.934;2023-06-14T03:20:12;7.00;7.00;3.67
69349;PMS5003;64554;43.452;4.934;2023-06-14T03:22:39;6.40;6.40;4.40
69349;PMS5003;64554;43.452;4.934;2023-06-14T03:25:06;9.00;9.00;6.00
69349;PMS5003;64554;43.452;4.934;2023-06-14T03:27:32;11.00;8.00;5.00
69349;PMS5003;64554;43.452;4.934;2023-06-14T03:29:59;6.80;6.80;4.60
69349;PMS5003;64554;43.452;4.934;2023-06-14T03:32:27;5.50;5.50;3.50
69349;PMS5003;64554;43.452;4.934;2023-06-14T03:34:53;7.80;7.80;5.60
69349;PMS5003;64554;43.452;4.934;2023-06-14T03:37:20;7.25;6.00;4.25
69349;PMS5003;64554;43.452;4.934;2023-06-14T03:39:47;7.00;7.00;4.40
69349;PMS5003;64554;43.452;4.934;2023-06-14T03:42:14;6.80;6.80;4.60
69349;PMS5003;64554;43.452;4.934;2023-06-14T03:44:41;10.00;9.00;6.00
69349;PMS5003;64554;43.452;4.934;2023-06-14T03:47:07;7.00;7.00;5.00
69349;PMS5003;64554;43.452;4.934;2023-06-14T03:49:34;8.20;8.20;4.60
69349;PMS5003;64554;43.452;4.934;2023-06-14T03:52:01;8.75;8.75;7.75
69349;PMS5003;64554;43.452;4.934;2023-06-14T03:54:29;7.00;7.00;5.00
69349;PMS5003;64554;43.452;4.934;2023-06-14T03:57:15;5.00;5.00;3.80
69349;PMS5003;64554;43.452;4.934;2023-06-14T03:59:42;8.75;8.75;5.00
69349;PMS5003;64554;43.452;4.934;2023-06-14T04:02:09;7.40;6.40;4.40
69349;PMS5003;64554;43.452;4.934;2023-06-14T04:04:35;6.00;6.00;4.00
69349;PMS5003;64554;43.452;4.934;2023-06-14T04:07:02;10.00;9.00;6.00
69349;PMS5003;64554;43.452;4.934;2023-06-14T04:09:29;8.00;8.00;6.00
69349;PMS5003;64554;43.452;4.934;2023-06-14T04:11:56;9.00;8.20;6.20
69349;PMS5003;64554;43.452;4.934;2023-06-14T04:14:23;7.00;7.00;5.00
69349;PMS5003;64554;43.452;4.934;2023-06-14T04:16:49;7.00;7.00;5.00
69349;PMS5003;64554;43.452;4.934;2023-06-14T04:19:16;9.60;9.60;5.80
69349;PMS5003;64554;43.452;4.934;2023-06-14T04:21:42;8.00;8.00;6.00
69349;PMS5003;64554;43.452;4.934;2023-06-14T04:24:09;8.40;7.40;5.20
69349;PMS5003;64554;43.452;4.934;2023-06-14T04:26:41;8.80;7.80;6.00
69349;PMS5003;64554;43.452;4.934;2023-06-14T04:29:11;8.60;8.60;5.00
69349;PMS5003;64554;43.452;4.934;2023-06-14T04:31:40;9.60;9.60;7.00
69349;PMS5003;64554;43.452;4.934;2023-06-14T04:34:07;8.80;8.80;4.20
69349;PMS5003;64554;43.452;4.934;2023-06-14T04:36:34;7.80;6.20;4.80
69349;PMS5003;64554;43.452;4.934;2023-06-14T04:39:03;9.00;9.00;6.80
69349;PMS5003;64554;43.452;4.934;2023-06-14T04:41:30;7.80;7.80;4.20
69349;PMS5003;64554;43.452;4.934;2023-06-14T04:43:58;8.00;8.00;5.25
69349;PMS5003;64554;43.452;4.934;2023-06-14T04:46:28;9.75;8.75;5.75
69349;PMS5003;64554;43.452;4.934;2023-06-14T04:48:55;11.00;8.60;5.60
69349;PMS5003;64554;43.452;4.934;2023-06-14T04:51:23;13.40;11.00;7.00
69349;PMS5003;64554;43.452;4.934;2023-06-14T04:53:58;8.00;8.00;5.25
69349;PMS5003;64554;43.452;4.934;2023-06-14T04:56:25;7.40;7.40;5.40
69349;PMS5003;64554;43.452;4.934;2023-06-14T04:58:52;7.00;7.00;5.00
69349;PMS5003;64554;43.452;4.934;2023-06-14T05:01:22;12.00;10.50;8.00
69349;PMS5003;64554;43.452;4.934;2023-06-14T05:03:52;7.80;6.00;5.00
69349;PMS5003;64554;43.452;4.934;2023-06-14T05:06:19;9.60;9.40;6.60
69349;PMS5003;64554;43.452;4.934;2023-06-14T05:08:46;10.40;10.40;6.60
69349;PMS5003;64554;43.452;4.934;2023-06-14T05:11:12;9.00;9.00;5.00
69349;PMS5003;64554;43.452;4.934;2023-06-14T05:13:39;8.00;8.00;5.60
69349;PMS5003;64554;43.452;4.934;2023-06-14T05:16:06;7.60;7.60;5.20
69349;PMS5003;64554;43.452;4.934;2023-06-14T05:18:33;9.40;9.40;4.80
69349;PMS5003;64554;43.452;4.934;2023-06-14T05:21:03;10.00;8.60;6.60
69349;PMS5003;64554;43.452;4.934;2023-06-14T05:23:32;8.00;8.00;5.00
69349;PMS5003;64554;43.452;4.934;2023-06-14T05:25:58;9.40;8.00;5.40
69349;PMS5003;64554;43.452;4.934;2023-06-14T05:28:25;8.67;7.33;3.67
69349;PMS5003;64554;43.452;4.934;2023-06-14T05:30:51;8.60;8.00;6.00
69349;PMS5003;64554;43.452;4.934;2023-06-14T05:33:18;8.00;8.00;6.00
69349;PMS5003;64554;43.452;4.934;2023-06-14T05:35:46;8.75;8.75;6.75
69349;PMS5003;64554;43.452;4.934;2023-06-14T05:38:13;9.00;8.60;5.60
69349;PMS5003;64554;43.452;4.934;2023-06-14T05:40:39;8.60;8.60;5.80
69349;PMS5003;64554;43.452;4.934;2023-06-14T05:43:06;8.33;8.33;6.00
69349;PMS5003;64554;43.452;4.934;2023-06-14T05:45:32;8.00;8.00;6.00
69349;PMS5003;64554;43.452;4.934;2023-06-14T05:47:59;7.80;6.80;5.80
69349;PMS5003;64554;43.452;4.934;2023-06-14T05:50:25;11.00;9.00;5.40
69349;PMS5003;64554;43.452;4.934;2023-06-14T05:52:53;8.75;8.75;5.75
69349;PMS5003;64554;43.452;4.934;2023-06-14T05:55:19;7.75;7.75;5.75
69349;PMS5003;64554;43.452;4.934;2023-06-14T05:57:46;8.60;8.60;4.80
69349;PMS5003;64554;43.452;4.934;2023-06-14T06:00:14;7.50;7.50;6.00
69349;PMS5003;64554;43.452;4.934;2023-06-14T06:02:42;10.00;7.40;5.40
69349;PMS5003;64554;43.452;4.934;2023-06-14T06:05:12;7.80;7.80;4.80
69349;PMS5003;64554;43.452;4.934;2023-06-14T06:07:40;10.00;10.00;7.40
69349;PMS5003;64554;43.452;4.934;2023-06-14T06:10:07;9.50;8.75;5.75
69349;PMS5003;64554;43.452;4.934;2023-06-14T06:12:34;8.00;8.00;5.40
69349;PMS5003;64554;43.452;4.934;2023-06-14T06:15:00;9.80;9.80;7.80
69349;PMS5003;64554;43.452;4.934;2023-06-14T06:17:27;8.00;8.00;6.80
69349;PMS5003;64554;43.452;4.934;2023-06-14T06:20:07;12.00;9.50;5.50
69349;PMS5003;64554;43.452;4.934;2023-06-14T06:22:34;8.20;8.20;5.60
69349;PMS5003;64554;43.452;4.934;2023-06-14T06:25:01;5.00;5.00;4.50
69349;PMS5003;64554;43.452;4.934;2023-06-14T06:27:27;8.60;8.60;7.40
69349;PMS5003;64554;43.452;4.934;2023-06-14T06:29:54;8.00;8.00;5.75
69349;PMS5003;64554;43.452;4.934;2023-06-14T06:32:21;7.60;7.60;5.60
69349;PMS5003;64554;43.452;4.934;2023-06-14T06:34:48;13.50;13.50;5.50
69349;PMS5003;64554;43.452;4.934;2023-06-14T06:37:14;9.20;8.60;5.60
69349;PMS5003;64554;43.452;4.934;2023-06-14T06:39:41;6.60;6.60;4.60
69349;PMS5003;64554;43.452;4.934;2023-06-14T06:42:08;6.40;6.40;5.20
69349;PMS5003;64554;43.452;4.934;2023-06-14T06:44:34;6.00;6.00;4.50
69349;PMS5003;64554;43.452;4.934;2023-06-14T06:47:01;6.75;6.75;5.75
69349;PMS5003;64554;43.452;4.934;2023-06-14T06:49:28;7.60;7.60;5.60
69349;PMS5003;64554;43.452;4.934;2023-06-14T06:52:01;5.60;5.60;4.60
69349;PMS5003;64554;43.452;4.934;2023-06-14T06:54:28;7.00;7.00;5.60
69349;PMS5003;64554;43.452;4.934;2023-06-14T06:56:55;10.20;7.40;5.00
69349;PMS5003;64554;43.452;4.934;2023-06-14T06:59:22;6.80;6.80;4.80
69349;PMS5003;64554;43.452;4.934;2023-06-14T07:01:48;12.75;11.00;4.75
69349;PMS5003;64554;43.452;4.934;2023-06-14T07:04:15;6.00;6.00;4.50
69349;PMS5003;64554;43.452;4.934;2023-06-14T07:06:42;9.40;7.40;5.40
69349;PMS5003;64554;43.452;4.934;2023-06-14T07:09:09;7.60;6.40;4.40
69349;PMS5003;64554;43.452;4.934;2023-06-14T07:11:40;6.00;6.00;4.00
69349;PMS5003;64554;43.452;4.934;2023-06-14T07:14:07;7.60;6.60;4.80
69349;PMS5003;64554;43.452;4.934;2023-06-14T07:16:33;8.00;7.00;5.00
69349;PMS5003;64554;43.452;4.934;2023-06-14T07:19:01;6.00;6.00;4.00
69349;PMS5003;64554;43.452;4.934;2023-06-14T07:21:28;6.00;6.00;5.00
69349;PMS5003;64554;43.452;4.934;2023-06-14T07:23:55;8.00;8.00;5.00
69349;PMS5003;64554;43.452;4.934;2023-06-14T07:26:23;10.20;6.40;4.00
69349;PMS5003;64554;43.452;4.934;2023-06-14T07:28:50;4.75;4.75;2.75
69349;PMS5003;64554;43.452;4.934;2023-06-14T07:31:16;4.00;4.00;2.00
69349;PMS5003;64554;43.452;4.934;2023-06-14T07:33:45;5.00;5.00;4.00
69349;PMS5003;64554;43.452;4.934;2023-06-14T07:36:12;5.00;5.00;3.00
69349;PMS5003;64554;43.452;4.934;2023-06-14T07:38:38;5.00;5.00;4.00
69349;PMS5003;64554;43.452;4.934;2023-06-14T07:41:07;6.00;5.00;3.20
69349;PMS5003;64554;43.452;4.934;2023-06-14T07:43:33;6.00;4.00;3.00
69349;PMS5003;64554;43.452;4.934;2023-06-14T07:46:00;4.00;4.00;3.00
69349;PMS5003;64554;43.452;4.934;2023-06-14T07:48:33;5.40;5.40;3.40
69349;PMS5003;64554;43.452;4.934;2023-06-14T07:50:59;3.00;3.00;2.00
69349;PMS5003;64554;43.452;4.934;2023-06-14T07:53:27;6.00;5.00;4.00
69349;PMS5003;64554;43.452;4.934;2023-06-14T07:55:54;6.75;6.75;4.50
69349;PMS5003;64554;43.452;4.934;2023-06-14T07:58:21;4.40;4.40;3.40
69349;PMS5003;64554;43.452;4.934;2023-06-14T08:00:47;4.50;4.50;3.00
69349;PMS5003;64554;43.452;4.934;2023-06-14T08:03:13;5.00;5.00;4.00
69349;PMS5003;64554;43.452;4.934;2023-06-14T08:05:42;4.00;4.00;3.00
69349;PMS5003;64554;43.452;4.934;2023-06-14T08:08:08;5.00;5.00;3.00
69349;PMS5003;64554;43.452;4.934;2023-06-14T08:10:35;6.50;5.00;3.50
69349;PMS5003;64554;43.452;4.934;2023-06-14T08:13:01;5.00;5.00;4.00
69349;PMS5003;64554;43.452;4.934;2023-06-14T08:15:28;6.80;6.00;5.00
69349;PMS5003;64554;43.452;4.934;2023-06-14T08:17:54;7.00;7.00;4.00
69349;PMS5003;64554;43.452;4.934;2023-06-14T08:20:21;7.50;6.50;3.50
69349;PMS5003;64554;43.452;4.934;2023-06-14T08:22:48;5.00;5.00;4.00
69349;PMS5003;64554;43.452;4.934;2023-06-14T08:25:14;5.50;5.50;4.50
69349;PMS5003;64554;43.452;4.934;2023-06-14T08:27:41;5.00;5.00;4.00
69349;PMS5003;64554;43.452;4.934;2023-06-14T08:30:08;4.75;4.00;2.00
69349;PMS5003;64554;43.452;4.934;2023-06-14T08:32:36;5.40;5.00;4.00
69349;PMS5003;64554;43.452;4.934;2023-06-14T08:35:03;12.00;10.20;4.80
69349;PMS5003;64554;43.452;4.934;2023-06-14T08:37:44;6.80;6.80;4.00
69349;PMS5003;64554;43.452;4.934;2023-06-14T08:42:41;7.25;6.25;4.25
69349;PMS5003;64554;43.452;4.934;2023-06-14T08:45:09;6.40;6.00;4.00
69349;PMS5003;64554;43.452;4.934;2023-06-14T08:47:35;5.00;5.00;4.00
69349;PMS5003;64554;43.452;4.934;2023-06-14T08:50:07;5.00;5.00;3.00
69349;PMS5003;64554;43.452;4.934;2023-06-14T08:52:51;5.50;5.00;4.00
69349;PMS5003;64554;43.452;4.934;2023-06-14T08:55:21;4.00;4.00;3.40
69349;PMS5003;64554;43.452;4.934;2023-06-14T08:57:53;6.00;6.00;3.00
69349;PMS5003;64554;43.452;4.934;2023-06-14T09:00:20;4.50;4.50;2.50
69349;PMS5003;64554;43.452;4.934;2023-06-14T09:02:47;3.25;3.25;3.00
69349;PMS5003;64554;43.452;4.934;2023-06-14T09:05:14;6.00;6.00;4.60
69349;PMS5003;64554;43.452;4.934;2023-06-14T09:07:44;6.20;4.80;3.00
69349;PMS5003;64554;43.452;4.934;2023-06-14T09:10:11;6.40;5.00;4.00
69349;PMS5003;64554;43.452;4.934;2023-06-14T09:12:38;4.00;4.00;3.00
69349;PMS5003;64554;43.452;4.934;2023-06-14T09:15:06;5.00;4.75;3.00
69349;PMS5003;64554;43.452;4.934;2023-06-14T09:17:35;4.00;4.00;2.75
69349;PMS5003;64554;43.452;4.934;2023-06-14T09:20:02;4.00;4.00;3.00
69349;PMS5003;64554;43.452;4.934;2023-06-14T09:22:33;4.40;4.40;3.60
69349;PMS5003;64554;43.452;4.934;2023-06-14T09:25:02;9.60;5.60;4.60
69349;PMS5003;64554;43.452;4.934;2023-06-14T09:27:29;5.00;5.00;4.00
69349;PMS5003;64554;43.452;4.934;2023-06-14T09:29:56;5.60;5.60;3.60
69349;PMS5003;64554;43.452;4.934;2023-06-14T09:32:23;8.00;6.00;4.00
69349;PMS5003;64554;43.452;4.934;2023-06-14T09:34:49;6.00;5.50;4.00
69349;PMS5003;64554;43.452;4.934;2023-06-14T09:37:29;5.00;5.00;4.00
69349;PMS5003;64554;43.452;4.934;2023-06-14T09:39:56;5.00;5.00;3.80
69349;PMS5003;64554;43.452;4.934;2023-06-14T09:42:23;5.00;5.00;3.00
69349;PMS5003;64554;43.452;4.934;2023-06-14T09:44:52;6.50;5.00;3.00
69349;PMS5003;64554;43.452;4.934;2023-06-14T09:47:20;3.60;3.60;2.60
69349;PMS5003;64554;43.452;4.934;2023-06-14T09:49:47;3.00;3.00;2.00
69349;PMS5003;64554;43.452;4.934;2023-06-14T09:52:15;4.80;4.80;2.80
69349;PMS5003;64554;43.452;4.934;2023-06-14T09:54:42;7.00;5.60;4.60
69349;PMS5003;64554;43.452;4.934;2023-06-14T09:57:13;5.00;5.00;3.75
69349;PMS5003;64554;43.452;4.934;2023-06-14T09:59:41;5.00;3.40;3.00
69349;PMS5003;64554;43.452;4.934;2023-06-14T10:02:10;3.25;3.25;3.00
69349;PMS5003;64554;43.452;4.934;2023-06-14T10:04:37;5.40;5.00;4.00
69349;PMS5003;64554;43.452;4.934;2023-06-14T10:07:06;5.40;4.00;2.00
69349;PMS5003;64554;43.452;4.934;2023-06-14T10:09:33;6.00;6.00;3.00
69349;PMS5003;64554;43.452;4.934;2023-06-14T10:12:00;5.20;5.20;3.60
69349;PMS5003;64554;43.452;4.934;2023-06-14T10:14:27;5.00;5.00;4.00
69349;PMS5003;64554;43.452;4.934;2023-06-14T10:19:44;4.75;4.75;3.25
69349;PMS5003;64554;43.452;4.934;2023-06-14T10:22:23;5.20;5.00;4.00
69349;PMS5003;64554;43.452;4.934;2023-06-14T10:24:54;6.00;6.00;4.00
69349;PMS5003;64554;43.452;4.934;2023-06-14T10:27:20;3.50;3.50;2.50
69349;PMS5003;64554;43.452;4.934;2023-06-14T10:32:22;7.00;7.00;4.00
69349;PMS5003;64554;43.452;4.934;2023-06-14T10:34:53;4.00;4.00;3.00
69349;PMS5003;64554;43.452;4.934;2023-06-14T10:37:20;4.25;4.25;2.75
69349;PMS5003;64554;43.452;4.934;2023-06-14T10:39:47;7.25;5.75;4.75
69349;PMS5003;64554;43.452;4.934;2023-06-14T10:42:14;3.50;3.50;2.25
69349;PMS5003;64554;43.452;4.934;2023-06-14T10:49:51;5.25;5.25;4.00
69349;PMS5003;64554;43.452;4.934;2023-06-14T10:52:20;3.33;3.33;2.00
69349;PMS5003;64554;43.452;4.934;2023-06-14T10:57:33;5.00;5.00;2.40
69349;PMS5003;64554;43.452;4.934;2023-06-14T11:00:15;5.00;5.00;4.00
69349;PMS5003;64554;43.452;4.934;2023-06-14T11:05:09;3.40;3.40;2.40
69349;PMS5003;64554;43.452;4.934;2023-06-14T11:12:55;4.00;4.00;3.00
69349;PMS5003;64554;43.452;4.934;2023-06-14T11:15:31;4.00;4.00;2.60
69349;PMS5003;64554;43.452;4.934;2023-06-14T11:18:02;5.00;3.00;2.00
69349;PMS5003;64554;43.452;4.934;2023-06-14T11:20:30;4.00;4.00;3.00
69349;PMS5003;64554;43.452;4.934;2023-06-14T11:22:56;5.60;4.40;2.60
69349;PMS5003;64554;43.452;4.934;2023-06-14T11:25:23;4.40;4.40;3.00
69349;PMS5003;64554;43.452;4.934;2023-06-14T11:27:50;3.50;3.50;3.50
69349;PMS5003;64554;43.452;4.934;2023-06-14T11:30:17;4.00;3.50;2.00
69349;PMS5003;64554;43.452;4.934;2023-06-14T11:32:47;6.00;6.00;4.00
69349;PMS5003;64554;43.452;4.934;2023-06-14T11:35:14;4.00;4.00;3.00
69349;PMS5003;64554;43.452;4.934;2023-06-14T11:37:42;4.20;4.20;3.20
69349;PMS5003;64554;43.452;4.934;2023-06-14T11:40:11;4.00;4.00;3.00
69349;PMS5003;64554;43.452;4.934;2023-06-14T11:42:39;5.00;4.00;3.00
69349;PMS5003;64554;43.452;4.934;2023-06-14T11:45:09;4.00;4.00;2.50
69349;PMS5003;64554;43.452;4.934;2023-06-14T11:47:36;5.75;5.75;4.00
69349;PMS5003;64554;43.452;4.934;2023-06-14T11:50:03;8.00;8.00;6.00
69349;PMS5003;64554;43.452;4.934;2023-06-14T11:52:30;6.60;6.60;3.60
69349;PMS5003;64554;43.452;4.934;2023-06-14T11:54:58;5.20;5.20;3.20
69349;PMS5003;64554;43.452;4.934;2023-06-14T11:57:25;8.00;8.00;7.00
69349;PMS5003;64554;43.452;4.934;2023-06-14T11:59:51;5.20;4.80;3.80
69349;PMS5003;64554;43.452;4.934;2023-06-14T12:02:18;5.60;5.60;4.00
69349;PMS5003;64554;43.452;4.934;2023-06-14T12:04:48;7.40;7.40;6.00
69349;PMS5003;64554;43.452;4.934;2023-06-14T12:07:18;6.00;6.00;3.33
69349;PMS5003;64554;43.452;4.934;2023-06-14T12:12:26;6.00;6.00;3.00
69349;PMS5003;64554;43.452;4.934;2023-06-14T12:14:55;6.80;6.80;4.20
69349;PMS5003;64554;43.452;4.934;2023-06-14T12:17:22;8.00;7.00;5.00
69349;PMS5003;64554;43.452;4.934;2023-06-14T12:19:49;5.50;5.50;4.50
69349;PMS5003;64554;43.452;4.934;2023-06-14T12:22:17;4.00;4.00;2.60
69349;PMS5003;64554;43.452;4.934;2023-06-14T12:24:44;5.00;5.00;3.00
69349;PMS5003;64554;43.452;4.934;2023-06-14T12:27:11;6.40;6.40;4.60
69349;PMS5003;64554;43.452;4.934;2023-06-14T12:29:42;9.25;9.25;7.00
69349;PMS5003;64554;43.452;4.934;2023-06-14T12:32:11;6.00;6.00;5.00
69349;PMS5003;64554;43.452;4.934;2023-06-14T12:34:38;7.00;7.00;5.00
69349;PMS5003;64554;43.452;4.934;2023-06-14T12:37:05;8.00;8.00;5.00
69349;PMS5003;64554;43.452;4.934;2023-06-14T12:39:32;6.40;6.40;5.00
69349;PMS5003;64554;43.452;4.934;2023-06-14T12:41:59;5.40;5.40;4.40
69349;PMS5003;64554;43.452;4.934;2023-06-14T12:44:26;5.40;5.40;4.40
69349;PMS5003;64554;43.452;4.934;2023-06-14T12:46:52;6.00;6.00;5.00
69349;PMS5003;64554;43.452;4.934;2023-06-14T12:49:21;8.20;6.20;4.60
69349;PMS5003;64554;43.452;4.934;2023-06-14T12:51:48;8.00;8.00;5.20
69349;PMS5003;64554;43.452;4.934;2023-06-14T12:54:14;7.00;7.00;5.00
69349;PMS5003;64554;43.452;4.934;2023-06-14T12:56:51;7.40;6.00;5.00
69349;PMS5003;64554;43.452;4.934;2023-06-14T12:59:18;5.40;5.40;3.60
69349;PMS5003;64554;43.452;4.934;2023-06-14T13:01:44;10.00;8.60;4.60
69349;PMS5003;64554;43.452;4.934;2023-06-14T13:04:11;6.20;6.20;5.00
69349;PMS5003;64554;43.452;4.934;2023-06-14T13:06:38;7.00;7.00;5.50
69349;PMS5003;64554;43.452;4.934;2023-06-14T13:09:04;13.25;13.25;6.25
69349;PMS5003;64554;43.452;4.934;2023-06-14T13:11:31;10.00;10.00;6.25
69349;PMS5003;64554;43.452;4.934;2023-06-14T13:13:58;10.75;9.50;6.00
69349;PMS5003;64554;43.452;4.934;2023-06-14T13:16:27;7.00;7.00;5.00
69349;PMS5003;64554;43.452;4.934;2023-06-14T13:18:54;9.00;7.67;5.00
69349;PMS5003;64554;43.452;4.934;2023-06-14T13:21:20;9.00;9.00;6.00
69349;PMS5003;64554;43.452;4.934;2023-06-14T13:23:47;8.00;8.00;5.00
69349;PMS5003;64554;43.452;4.934;2023-06-14T13:26:13;7.50;7.50;5.00
69349;PMS5003;64554;43.452;4.934;2023-06-14T13:28:40;11.00;11.00;7.60
69349;PMS5003;64554;43.452;4.934;2023-06-14T13:31:06;9.50;9.50;6.50
69349;PMS5003;64554;43.452;4.934;2023-06-14T13:33:33;9.00;9.00;5.60
69349;PMS5003;64554;43.452;4.934;2023-06-14T13:35:59;9.80;9.40;6.40
69349;PMS5003;64554;43.452;4.934;2023-06-14T13:38:26;12.00;10.00;7.60
69349;PMS5003;64554;43.452;4.934;2023-06-14T13:40:52;10.50;9.00;6.50
69349;PMS5003;64554;43.452;4.934;2023-06-14T13:43:19;10.50;10.50;7.00
69349;PMS5003;64554;43.452;4.934;2023-06-14T13:45:45;8.00;8.00;5.50
69349;PMS5003;64554;43.452;4.934;2023-06-14T13:48:12;16.60;16.60;8.20
69349;PMS5003;64554;43.452;4.934;2023-06-14T13:50:39;9.00;9.00;5.60
69349;PMS5003;64554;43.452;4.934;2023-06-14T13:53:06;12.25;10.50;7.00
69349;PMS5003;64554;43.452;4.934;2023-06-14T13:55:32;11.80;10.60;7.00
69349;PMS5003;64554;43.452;4.934;2023-06-14T13:57:59;16.00;14.00;10.00
69349;PMS5003;64554;43.452;4.934;2023-06-14T14:00:26;7.00;7.00;6.00
69349;PMS5003;64554;43.452;4.934;2023-06-14T14:02:52;14.40;13.00;8.40
69349;PMS5003;64554;43.452;4.934;2023-06-14T14:05:19;15.20;13.40;8.00
69349;PMS5003;64554;43.452;4.934;2023-06-14T14:07:47;11.00;10.00;7.67
69349;PMS5003;64554;43.452;4.934;2023-06-14T14:10:13;11.00;11.00;6.75
69349;PMS5003;64554;43.452;4.934;2023-06-14T14:12:41;26.50;21.50;13.00
69349;PMS5003;64554;43.452;4.934;2023-06-14T14:15:07;20.00;20.00;9.60
69349;PMS5003;64554;43.452;4.934;2023-06-14T14:17:39;11.00;11.00;8.00
69349;PMS5003;64554;43.452;4.934;2023-06-14T14:20:06;13.20;12.60;7.60
69349;PMS5003;64554;43.452;4.934;2023-06-14T14:22:33;12.00;10.00;7.00
69349;PMS5003;64554;43.452;4.934;2023-06-14T14:25:00;10.20;9.20;6.20
69349;PMS5003;64554;43.452;4.934;2023-06-14T14:27:26;8.00;8.00;6.00
69349;PMS5003;64554;43.452;4.934;2023-06-14T14:29:52;9.40;8.40;6.40
69349;PMS5003;64554;43.452;4.934;2023-06-14T14:32:19;11.00;11.00;7.00
69349;PMS5003;64554;43.452;4.934;2023-06-14T14:34:46;9.00;9.00;7.00
69349;PMS5003;64554;43.452;4.934;2023-06-14T14:37:13;10.00;10.00;7.40
69349;PMS5003;64554;43.452;4.934;2023-06-14T14:39:41;9.00;8.00;6.00
69349;PMS5003;64554;43.452;4.934;2023-06-14T14:42:08;11.00;9.00;7.00
69349;PMS5003;64554;43.452;4.934;2023-06-14T14:44:35;10.60;9.60;6.00
69349;PMS5003;64554;43.452;4.934;2023-06-14T14:47:02;11.40;11.40;7.20
69349;PMS5003;64554;43.452;4.934;2023-06-14T14:49:30;9.00;8.00;5.00
69349;PMS5003;64554;43.452;4.934;2023-06-14T14:51:57;14.75;12.50;8.75